Meyersville, Texas
Current Conditions -  °F | °C
As of 4:51 AM on Wednesday 22 Oct 2014 (Local Time) from KVCT Reporting Station
Clear Clear  
Wind Chill: 16°   Ceiling: Unl
Heat Index: 16°   Visibility: 10mi
Dew Point: 13°   Wind: 6mph
Humidity: 83%   Direction: 10°N
Pressure: 30.02"   Gusts: NA
Location:  28.93°N, 97.31°W
Report Text: KVCT 220951Z AUTO 01005KT 10SM CLR 16/13 A3002 RMK AO2 SLP162 T01560128
Loading
Personal Weather Stations






























Interactive Weather Map
Tropical Storm Tracking
New forecast layout! Learn more

10-Day Weather Forecast

Advertisements
Track Severe Weather on mobile